Details From FMMI - Ivato Int'l
To FBSK - Gaborone International Airport Sir Sereste Khama
Flight Number -
Tags generated
Created
Modified
Stats Distance 1,292 nm / 2,392 km
Max Altitude 35,000 ft / 10,668 m
Waypoints 21
Social Downloads 1
Likes 0
Share VATSIM

Download

Looking for another format? Having issues loading an existing format? Contact us
Advertisement - Login to hide

Notes

Basic altitude profile: - Ascent Rate: 2500ft/min - Ascent Speed: 250kts - Cruise Altitude: 35000ft - Cruise Speed: 420kts - Descent Rate: 1500ft/min - Descent Speed: 250kts Options: - Use NATs: no - Use PACOTS: no - Use low airways: yes - Use high airways: yes

Route

FMMI SOPVI UB536 EROPA UT446 UNPEN T446 OKPIT NESAN VASUR Q24 EVOPO FBSK

ID Type Via Altitude (ft/m) Position (lat/lon) Dist (leg/tot) Name
O FMMI APT - 0 / 0 -18.79700 / 47.47880 - / 0 nm Ivato Int'l
SOPVI FIX - 20,700 / 6,309 -19.25030 / 46.57360 58 / 58 nm
IXAGU FIX UB536 (AWY-HI) 35,000 / 10,668 -19.91140 / 45.14610 90 / 148 nm
VSO NDB UB536 (AWY-HI) 35,000 / 10,668 -20.28760 / 44.31720 51 / 200 nm MORONDAVA
EDAMA FIX UB536 (AWY-HI) 35,000 / 10,668 -22.18690 / 40.62720 235 / 436 nm
EROPA FIX UB536 (AWY-HI) 35,000 / 10,668 -22.49670 / 40.00000 39 / 475 nm
ANTAT FIX UT446 (AWY-HI) 35,000 / 10,668 -23.60470 / 36.81390 188 / 663 nm
DUDRO FIX UT446 (AWY-HI) 35,000 / 10,668 -24.22220 / 34.92580 110 / 773 nm
EPROS FIX UT446 (AWY-HI) 35,000 / 10,668 -24.68920 / 33.43500 86 / 860 nm
ETGER FIX UT446 (AWY-HI) 35,000 / 10,668 -24.75190 / 33.23000 11 / 871 nm
ANSUT FIX UT446 (AWY-HI) 35,000 / 10,668 -24.82830 / 32.97940 14 / 886 nm
UTVUG FIX UT446 (AWY-HI) 35,000 / 10,668 -24.90890 / 32.71310 15 / 901 nm
GENUT FIX UT446 (AWY-HI) 35,000 / 10,668 -24.99860 / 32.41440 17 / 918 nm
UNPEN FIX UT446 (AWY-HI) 35,000 / 10,668 -25.11210 / 32.03250 21 / 940 nm
PKV VOR T446 (AWY-HI) 35,000 / 10,668 -25.38100 / 31.11110 52 / 993 nm KRUGER MPUMALANGA
UNDIT FIX T446 (AWY-HI) 35,000 / 10,668 -25.44640 / 29.20450 103 / 1096 nm
OKPIT FIX T446 (AWY-HI) 35,000 / 10,668 -25.46230 / 28.74240 25 / 1121 nm
NESAN FIX - 29,100 / 8,870 -25.49690 / 28.11820 33 / 1155 nm
VASUR FIX - 26,300 / 8,016 -25.56300 / 27.89330 12 / 1168 nm
EVOPO FIX Q24 (AWY-HI) 17,000 / 5,182 -25.20670 / 27.19400 43 / 1211 nm
O FBSK APT - 0 / 0 -24.55310 / 25.92280 79 / 1291 nm Gaborone International Airport Sir Sereste Khama

Altitude Profile

Advertisement - Login to hide

Weather


0- 5 10 15 20 25 30 35+ Temperature / °C

Clouds and Precipitation
Forecast for 2019-07-16 00:00 UTC. Updated 20 minutes ago

Ground ~20,000 ft ~40,000 ft Winds

FMMI

Details ICAO FMMI (TNR)
Name Ivato Int'l
Region Comoros, Mayotte, Réunion and Madagascar
Timezone Indian/Antananarivo (UTC+3.0)
Stats Elevation 4,198 ft / 1,280 m (AMSL)
Location -18.797000° 47.478800°
Runways 1
Magnetic Variation 15.206° W

METAR

FMMI 152130Z 16008KT 9999 FEW010 BKN020 13/10 Q1027 NOSIG

Decode

TAF

TAF FMMI 151700Z 1518/1624 14010KT 9999 FEW017 BKN020 PROB30 TEMPO 1522/1608 4500 DZRA

Decode

Departure Runways

ID Width Length Bearing (true/mag) Surface Threshold Overrun Markings Lighting
11 148 ft / 45 m 10,180 ft / 3,103 m 98.92° / 114.12° ASPHALT 0 ft / 0 m 207 ft / 63 m PREC-APP EDGE THRESHOLD ALSF-I
29 148 ft / 45 m 10,180 ft / 3,103 m 278.91° / 294.11° ASPHALT 0 ft / 0 m 190 ft / 58 m PREC-APP EDGE THRESHOLD ALSF-I REIL-OMNI

FBSK

Details ICAO FBSK (GBE)
Name Gaborone International Airport Sir Sereste Khama
Region Botswana
Timezone Africa/Gaborone (UTC+2.0)
Stats Elevation 3,298 ft / 1,005 m (AMSL)
Location -24.553100° 25.922800°
Runways 1
Magnetic Variation 15.771° W

METAR

FBSK 152100Z 14005KT CAVOK 10/M01 Q1026 NOSIG

Decode

TAF

TAF FBSK 151500Z 1518/1624 07008KT CAVOK= TAF FQMA 151600Z 1518/1624 34012KT 9999 FEW020 TX29/1613Z TN13/1603Z BECMG 1606/1608 03006KT BECMG 1618/1620 33010KT

Decode

Destination Runways

ID Width Length Bearing (true/mag) Surface Threshold Overrun Markings Lighting
08 148 ft / 45 m 13,124 ft / 4,000 m 61.48° / 77.26° CONCRETE 0 ft / 0 m 0 ft / 0 m PREC-APP EDGE THRESHOLD ALSF-II
26 148 ft / 45 m 13,124 ft / 4,000 m 241.47° / 257.24° CONCRETE 0 ft / 0 m 0 ft / 0 m PREC-APP EDGE THRESHOLD MALS

Popular Alternatives